Terminal Aerodrome Forecast
Issued by NWS Detroit/Pontiac, MI

Home | Current Version | Previous Version | Text Only | Print | Product List | Glossary On
Versions: 1 2 3 4 5 6 7 8 9 10 11 12 13 14 15 16
365
FTUS43 KDTX 050908 AAA
TAFFNT
TAF AMD
KFNT 050908Z 0509/0606 26009KT P6SM OVC010
     FM051400 24010KT P6SM OVC018
     FM060100 18005KT P6SM SCT020=

USA.gov is the U.S. government's official web portal to all federal, state and local government web resources and services.